createdAt,value
2023-05-01T00:01:46.049Z,101061.13
2023-05-01T00:04:13.129Z,101062.09
2023-05-01T00:06:39.747Z,101048.69
2023-05-01T00:09:07.111Z,101043.69
2023-05-01T00:11:35.046Z,101046.94
2023-05-01T00:14:01.448Z,101044.84
2023-05-01T00:16:27.868Z,101040.78
2023-05-01T00:18:55.026Z,101033.13
2023-05-01T00:21:21.395Z,101033.03
2023-05-01T00:23:47.973Z,101030.47
2023-05-01T00:26:14.342Z,101025.69
2023-05-01T00:28:40.728Z,101023.81
2023-05-01T00:31:07.968Z,101016.34
2023-05-01T00:33:34.335Z,101017.94
2023-05-01T00:36:00.996Z,101020.00
2023-05-01T00:38:27.497Z,101011.44
2023-05-01T00:40:53.864Z,101012.75
2023-05-01T00:43:20.766Z,101005.38
2023-05-01T00:45:47.334Z,101000.59
2023-05-01T00:48:14.579Z,100998.84
2023-05-01T00:50:40.992Z,100997.78
2023-05-01T00:53:07.537Z,100994.03
2023-05-01T00:55:35.734Z,100990.28
2023-05-01T00:58:02.647Z,100981.50
2023-05-01T01:00:29.591Z,100990.19
2023-05-01T01:02:56.293Z,100976.22
2023-05-01T01:05:24.789Z,100982.69
2023-05-01T01:08:30.631Z,100975.34
2023-05-01T01:11:13.752Z,100973.53
2023-05-01T01:13:45.546Z,100972.25
2023-05-01T01:16:39.851Z,100972.09
2023-05-01T01:19:22.135Z,100971.22
2023-05-01T01:21:51.479Z,100959.44
2023-05-01T01:24:29.966Z,100959.03
2023-05-01T01:27:26.767Z,100953.63
2023-05-01T01:29:56.377Z,100960.84
2023-05-01T01:32:41.649Z,100957.78
2023-05-01T01:35:10.764Z,100957.22
2023-05-01T01:37:48.782Z,100952.59
2023-05-01T01:40:19.567Z,100945.75
2023-05-01T01:43:08.120Z,100951.84
2023-05-01T01:45:40.840Z,100946.16
2023-05-01T01:48:10.686Z,100941.50
2023-05-01T01:50:38.602Z,100938.72
2023-05-01T01:53:07.075Z,100934.03
2023-05-01T01:55:35.023Z,100925.78
2023-05-01T01:58:03.292Z,100927.50
2023-05-01T02:00:29.884Z,100924.75
2023-05-01T02:02:59.064Z,100925.81
2023-05-01T02:05:26.356Z,100918.94
2023-05-01T02:07:53.262Z,100922.31
2023-05-01T02:10:20.160Z,100919.47
2023-05-01T02:12:48.460Z,100915.22
2023-05-01T02:15:16.706Z,100909.13
2023-05-01T02:17:43.261Z,100906.31
2023-05-01T02:20:12.564Z,100909.94
2023-05-01T02:22:40.914Z,100903.84
2023-05-01T02:25:11.926Z,100901.00
2023-05-01T02:27:42.353Z,100897.88
2023-05-01T02:30:09.483Z,100892.59
2023-05-01T02:32:35.861Z,100895.81
2023-05-01T02:35:02.325Z,100882.16
2023-05-01T02:37:30.614Z,100889.41
2023-05-01T02:39:57.477Z,100877.66
2023-05-01T02:42:25.537Z,100881.16
2023-05-01T02:44:55.344Z,100883.34
2023-05-01T02:47:23.142Z,100884.00
2023-05-01T02:49:51.357Z,100881.78
2023-05-01T02:52:19.332Z,100875.19
2023-05-01T02:54:46.472Z,100869.28
2023-05-01T02:57:12.966Z,100864.13
2023-05-01T02:59:40.898Z,100864.78
2023-05-01T03:02:07.329Z,100866.94
2023-05-01T03:04:33.811Z,100856.91
2023-05-01T03:07:00.189Z,100854.19
2023-05-01T03:09:26.662Z,100852.22
2023-05-01T03:11:53.269Z,100852.13
2023-05-01T03:14:20.502Z,100851.97
2023-05-01T03:16:47.040Z,100845.56
2023-05-01T03:19:13.497Z,100838.06
2023-05-01T03:21:39.907Z,100835.22
2023-05-01T03:24:06.617Z,100836.66
2023-05-01T03:26:33.072Z,100832.13
2023-05-01T03:28:59.722Z,100824.66
2023-05-01T03:31:26.117Z,100827.59
2023-05-01T03:33:52.537Z,100828.25
2023-05-01T03:36:18.942Z,100820.75
2023-05-01T03:38:45.977Z,100820.00
2023-05-01T03:41:12.380Z,100819.75
2023-05-01T03:43:38.801Z,100809.78
2023-05-01T03:46:05.390Z,100813.03
2023-05-01T03:48:31.793Z,100814.31
2023-05-01T03:50:58.182Z,100811.88
2023-05-01T03:53:25.059Z,100805.16
2023-05-01T03:55:51.476Z,100809.78
2023-05-01T03:58:17.849Z,100808.25
2023-05-01T04:00:44.215Z,100803.50
2023-05-01T04:03:10.694Z,100795.50
2023-05-01T04:05:37.230Z,100806.44
2023-05-01T04:08:04.321Z,100807.59
2023-05-01T04:10:30.880Z,100801.03
2023-05-01T04:12:57.287Z,100807.34
2023-05-01T04:15:23.790Z,100805.66
2023-05-01T04:17:50.303Z,100808.88
2023-05-01T04:20:18.103Z,100808.63
2023-05-01T04:22:44.474Z,100801.69
2023-05-01T04:25:11.202Z,100804.38
2023-05-01T04:27:37.557Z,100800.41
2023-05-01T04:30:04.400Z,100795.22
2023-05-01T04:32:30.821Z,100795.72
2023-05-01T04:34:57.881Z,100793.31
2023-05-01T04:37:24.360Z,100797.69
2023-05-01T04:39:51.018Z,100796.50
2023-05-01T04:42:17.419Z,100795.63
2023-05-01T04:44:45.594Z,100790.97
2023-05-01T04:47:12.058Z,100793.03
2023-05-01T04:49:38.513Z,100784.63
2023-05-01T04:52:04.950Z,100788.00
2023-05-01T04:54:31.682Z,100783.09
2023-05-01T04:56:58.046Z,100782.72
2023-05-01T04:59:24.420Z,100784.13
2023-05-01T05:01:50.847Z,100777.81
2023-05-01T05:04:17.246Z,100786.97
2023-05-01T05:06:43.718Z,100787.59
2023-05-01T05:09:11.147Z,100787.38
2023-05-01T05:11:37.521Z,100787.47
2023-05-01T05:14:04.032Z,100788.34
2023-05-01T05:16:30.658Z,100792.97
2023-05-01T05:18:57.654Z,100789.22
2023-05-01T05:21:24.322Z,100787.56
2023-05-01T05:23:50.995Z,100780.69
2023-05-01T05:26:17.797Z,100788.13
2023-05-01T05:28:44.193Z,100779.31
2023-05-01T05:31:10.635Z,100786.00
2023-05-01T05:33:37.075Z,100779.75
2023-05-01T05:36:03.613Z,100771.50
2023-05-01T05:38:30.111Z,100782.91
2023-05-01T05:40:56.523Z,100785.75
2023-05-01T05:43:23.677Z,100782.81
2023-05-01T05:45:50.907Z,100779.03
2023-05-01T05:48:17.364Z,100776.81
2023-05-01T05:50:43.894Z,100775.63
2023-05-01T05:53:10.355Z,100774.19
2023-05-01T05:55:36.818Z,100766.66
2023-05-01T05:58:03.192Z,100771.84
2023-05-01T06:00:29.761Z,100769.19
2023-05-01T06:02:56.580Z,100768.09
2023-05-01T06:05:23.226Z,100769.00
2023-05-01T06:07:49.618Z,100765.00
2023-05-01T06:10:16.358Z,100760.66
2023-05-01T06:12:44.855Z,100769.84
2023-05-01T06:15:16.938Z,100768.75
2023-05-01T06:17:43.456Z,100766.75
2023-05-01T06:20:10.633Z,100771.50
2023-05-01T06:22:37.040Z,100769.63
2023-05-01T06:25:04.164Z,100773.53
2023-05-01T06:27:30.582Z,100765.06
2023-05-01T06:29:57.167Z,100763.34
2023-05-01T06:32:23.867Z,100761.09
2023-05-01T06:34:50.393Z,100765.56
2023-05-01T06:37:16.788Z,100767.97
2023-05-01T06:39:43.246Z,100757.06
2023-05-01T06:42:11.878Z,100758.94
2023-05-01T06:44:38.284Z,100762.00
2023-05-01T06:47:04.749Z,100755.13
2023-05-01T06:49:31.173Z,100759.84
2023-05-01T06:51:57.546Z,100759.84
2023-05-01T06:54:23.999Z,100744.41
2023-05-01T06:56:50.447Z,100750.78
2023-05-01T06:59:16.878Z,100744.94
2023-05-01T07:01:43.362Z,100746.81
2023-05-01T07:04:09.818Z,100746.16
2023-05-01T07:06:36.295Z,100745.34
2023-05-01T07:09:03.936Z,100746.72
2023-05-01T07:11:30.444Z,100745.91
2023-05-01T07:13:56.912Z,100746.22
2023-05-01T07:16:23.313Z,100738.78
2023-05-01T07:18:49.772Z,100742.81
2023-05-01T07:21:16.500Z,100739.63
2023-05-01T07:23:42.924Z,100744.84
2023-05-01T07:26:09.418Z,100737.69
2023-05-01T07:28:36.031Z,100740.72
2023-05-01T07:31:02.576Z,100736.84
2023-05-01T07:33:29.354Z,100738.25
2023-05-01T07:35:56.559Z,100738.25
2023-05-01T07:38:22.991Z,100732.47
2023-05-01T07:40:52.735Z,100727.94
2023-05-01T07:43:19.237Z,100724.16
2023-05-01T07:46:01.450Z,100725.06
2023-05-01T07:48:28.245Z,100724.97
2023-05-01T07:50:55.317Z,100719.25
2023-05-01T07:53:24.631Z,100718.28
2023-05-01T07:55:51.387Z,100707.88
2023-05-01T07:58:17.867Z,100713.88
2023-05-01T08:00:47.091Z,100719.63
2023-05-01T08:03:13.664Z,100712.44
2023-05-01T08:05:42.921Z,100713.25
2023-05-01T08:08:09.765Z,100714.75
2023-05-01T08:10:36.468Z,100705.84
2023-05-01T08:13:02.853Z,100707.53
2023-05-01T08:15:29.260Z,100709.44
2023-05-01T08:17:55.705Z,100704.25
2023-05-01T08:20:22.201Z,100705.31
2023-05-01T08:22:48.565Z,100704.91
2023-05-01T08:25:14.995Z,100711.00
2023-05-01T08:27:41.403Z,100703.50
2023-05-01T08:30:08.016Z,100698.84
2023-05-01T08:32:34.496Z,100702.13
2023-05-01T08:35:00.971Z,100697.94
2023-05-01T08:37:27.501Z,100689.00
2023-05-01T08:39:54.158Z,100684.34
2023-05-01T08:42:20.903Z,100692.53
2023-05-01T08:44:47.977Z,100687.97
2023-05-01T08:47:15.673Z,100687.16
2023-05-01T08:49:42.805Z,100680.19
2023-05-01T08:52:11.969Z,100681.56
2023-05-01T08:54:46.766Z,100679.66
2023-05-01T08:57:13.178Z,100678.13
2023-05-01T08:59:40.445Z,100676.69
2023-05-01T09:02:08.364Z,100674.59
2023-05-01T09:04:37.427Z,100681.78
2023-05-01T09:07:04.796Z,100668.44
2023-05-01T09:09:31.789Z,100669.94
2023-05-01T09:12:35.440Z,100672.00
2023-05-01T09:15:03.356Z,100659.91
2023-05-01T09:17:32.143Z,100659.31
2023-05-01T09:19:59.190Z,100662.63
2023-05-01T09:22:25.694Z,100655.59
2023-05-01T09:24:52.135Z,100649.06
2023-05-01T09:27:19.209Z,100649.00
2023-05-01T09:29:47.471Z,100643.94
2023-05-01T09:32:15.939Z,100653.97
2023-05-01T09:34:43.778Z,100647.78
2023-05-01T09:37:13.592Z,100645.75
2023-05-01T09:39:39.980Z,100640.03
2023-05-01T09:42:06.582Z,100647.72
2023-05-01T09:44:41.216Z,100646.81
2023-05-01T09:47:08.136Z,100639.81
2023-05-01T09:49:45.534Z,100636.03
2023-05-01T09:52:11.939Z,100638.03
2023-05-01T09:54:38.380Z,100638.91
2023-05-01T09:57:05.007Z,100633.19
2023-05-01T09:59:34.227Z,100634.63
2023-05-01T10:02:01.468Z,100634.16
2023-05-01T10:04:32.363Z,100635.41
2023-05-01T10:07:01.340Z,100637.03
2023-05-01T10:09:29.141Z,100631.38
2023-05-01T10:11:57.425Z,100629.25
2023-05-01T10:14:25.563Z,100627.47
2023-05-01T10:16:53.082Z,100622.63
2023-05-01T10:19:20.911Z,100626.22
2023-05-01T10:21:47.345Z,100625.94
2023-05-01T10:24:15.135Z,100623.94
2023-05-01T10:26:42.721Z,100621.13
2023-05-01T10:29:09.182Z,100622.72
2023-05-01T10:31:35.753Z,100617.63
2023-05-01T10:34:02.285Z,100616.31
2023-05-01T10:36:39.137Z,100628.81
2023-05-01T10:39:05.567Z,100620.72
2023-05-01T10:41:57.855Z,100620.41
2023-05-01T10:44:25.111Z,100622.25
2023-05-01T10:46:51.833Z,100620.81
2023-05-01T10:49:18.607Z,100620.75
2023-05-01T10:52:00.862Z,100609.81
2023-05-01T10:54:33.442Z,100610.56
2023-05-01T10:57:01.586Z,100600.06
2023-05-01T10:59:54.971Z,100599.34
2023-05-01T11:02:22.178Z,100596.56
2023-05-01T11:04:54.423Z,100599.75
2023-05-01T11:07:22.217Z,100600.75
2023-05-01T11:09:54.774Z,100596.25
2023-05-01T11:12:46.163Z,100595.94
2023-05-01T11:15:13.599Z,100583.31
2023-05-01T11:17:40.144Z,100578.91
2023-05-01T11:20:35.683Z,100578.38
2023-05-01T11:23:02.052Z,100569.75
2023-05-01T11:25:33.154Z,100572.94
2023-05-01T11:28:01.661Z,100568.31
2023-05-01T11:30:40.756Z,100571.41
2023-05-01T11:33:10.178Z,100570.22
2023-05-01T11:35:39.261Z,100564.22
2023-05-01T11:38:05.689Z,100562.06
2023-05-01T11:40:34.208Z,100562.69
2023-05-01T11:43:02.202Z,100565.56
2023-05-01T11:45:28.873Z,100567.81
2023-05-01T11:47:55.388Z,100565.66
2023-05-01T11:50:22.009Z,100568.09
2023-05-01T11:52:55.330Z,100563.13
2023-05-01T11:55:31.149Z,100561.16
2023-05-01T11:57:57.540Z,100572.75
2023-05-01T12:00:28.025Z,100572.06
2023-05-01T12:03:02.289Z,100570.97
2023-05-01T12:05:30.340Z,100563.44
2023-05-01T12:08:20.626Z,100559.06
2023-05-01T12:10:49.101Z,100554.63
2023-05-01T12:13:16.105Z,100564.25
2023-05-01T12:15:45.270Z,100561.97
2023-05-01T12:18:12.777Z,100551.34
2023-05-01T12:20:43.960Z,100552.94
2023-05-01T12:23:11.686Z,100552.31
2023-05-01T12:25:39.597Z,100546.03
2023-05-01T12:28:19.969Z,100542.25
2023-05-01T12:30:47.708Z,100537.41
2023-05-01T12:33:16.372Z,100541.03
2023-05-01T12:35:46.789Z,100541.34
2023-05-01T12:38:21.632Z,100547.28
2023-05-01T12:40:57.657Z,100547.03
2023-05-01T12:43:32.240Z,100549.31
2023-05-01T12:45:58.792Z,100545.19
2023-05-01T12:48:25.697Z,100557.13
2023-05-01T12:50:55.403Z,100551.56
2023-05-01T12:53:26.443Z,100554.59
2023-05-01T12:55:55.066Z,100551.75
2023-05-01T12:58:21.730Z,100551.78
2023-05-01T13:00:53.530Z,100548.88
2023-05-01T13:03:26.818Z,100553.81
2023-05-01T13:05:58.552Z,100545.25
2023-05-01T13:08:29.711Z,100539.88
2023-05-01T13:10:57.349Z,100535.09
2023-05-01T13:13:28.982Z,100528.78
2023-05-01T13:16:04.068Z,100525.66
2023-05-01T13:18:31.487Z,100521.16
2023-05-01T13:21:06.741Z,100521.22
2023-05-01T13:23:33.178Z,100525.97
2023-05-01T13:25:59.569Z,100520.72
2023-05-01T13:28:26.001Z,100524.44
2023-05-01T13:30:52.660Z,100523.88
2023-05-01T13:33:19.044Z,100527.19
2023-05-01T13:35:45.885Z,100528.31
2023-05-01T13:38:12.696Z,100524.78
2023-05-01T13:40:40.120Z,100512.50
2023-05-01T13:43:12.789Z,100505.50
2023-05-01T13:45:39.802Z,100489.63
2023-05-01T13:48:06.261Z,100488.56
2023-05-01T13:50:34.275Z,100497.66
2023-05-01T13:53:01.253Z,100503.53
2023-05-01T13:55:27.706Z,100503.00
2023-05-01T13:57:54.197Z,100502.16
2023-05-01T14:00:20.596Z,100506.72
2023-05-01T14:02:53.014Z,100507.22
2023-05-01T14:05:25.209Z,100497.22
2023-05-01T14:07:55.128Z,100497.59
2023-05-01T14:10:22.237Z,100513.50
2023-05-01T14:12:48.671Z,100522.03
2023-05-01T14:15:15.058Z,100515.50
2023-05-01T14:17:41.482Z,100510.44
2023-05-01T14:20:08.687Z,100515.28
2023-05-01T14:22:43.588Z,100529.56
2023-05-01T14:25:34.699Z,100531.06
2023-05-01T14:28:12.114Z,100532.84
2023-05-01T14:30:39.486Z,100540.50
2023-05-01T14:33:07.874Z,100539.31
2023-05-01T14:35:35.298Z,100544.00
2023-05-01T14:38:10.543Z,100542.34
2023-05-01T14:40:40.020Z,100537.88
2023-05-01T14:43:06.516Z,100532.34
2023-05-01T14:45:32.956Z,100537.09
2023-05-01T14:47:59.460Z,100544.25
2023-05-01T14:50:25.969Z,100544.63
2023-05-01T14:52:56.935Z,100549.44
2023-05-01T14:55:28.223Z,100553.56
2023-05-01T14:57:55.786Z,100554.31
2023-05-01T15:00:23.020Z,100559.84
2023-05-01T15:02:49.851Z,100556.16
2023-05-01T15:05:16.958Z,100555.78
2023-05-01T15:07:43.664Z,100557.22
2023-05-01T15:10:11.035Z,100555.72
2023-05-01T15:12:37.427Z,100564.22
2023-05-01T15:15:04.200Z,100549.69
2023-05-01T15:17:32.434Z,100556.59
2023-05-01T15:19:59.006Z,100558.63
2023-05-01T15:22:25.463Z,100558.31
2023-05-01T15:24:52.021Z,100566.41
2023-05-01T15:27:18.408Z,100565.84
2023-05-01T15:29:44.840Z,100563.31
2023-05-01T15:32:12.753Z,100567.31
2023-05-01T15:34:40.006Z,100568.13
2023-05-01T15:37:06.449Z,100561.81
2023-05-01T15:39:33.350Z,100564.34
2023-05-01T15:42:00.798Z,100579.19
2023-05-01T15:44:28.604Z,100583.81
2023-05-01T15:46:55.149Z,100585.97
2023-05-01T15:49:21.677Z,100595.56
2023-05-01T15:51:48.052Z,100594.28
2023-05-01T15:54:14.432Z,100620.88
2023-05-01T15:56:40.853Z,100651.63
2023-05-01T15:59:07.804Z,100668.72
2023-05-01T16:01:35.211Z,100687.84
2023-05-01T16:04:03.603Z,100705.84
2023-05-01T16:06:31.136Z,100708.56
2023-05-01T16:08:58.528Z,100715.56
2023-05-01T16:11:24.971Z,100723.13
2023-05-01T16:13:53.937Z,100729.50
2023-05-01T16:16:26.334Z,100744.69
2023-05-01T16:18:55.644Z,100742.34
2023-05-01T16:21:23.095Z,100752.84
2023-05-01T16:23:49.788Z,100752.72
2023-05-01T16:26:22.210Z,100758.72
2023-05-01T16:28:48.764Z,100764.81
2023-05-01T16:31:26.608Z,100763.13
2023-05-01T16:33:54.001Z,100764.56
2023-05-01T16:36:21.219Z,100772.41
2023-05-01T16:38:47.737Z,100777.47
2023-05-01T16:41:17.371Z,100772.53
2023-05-01T16:43:45.312Z,100765.03
2023-05-01T16:46:13.511Z,100757.03
2023-05-01T16:48:40.299Z,100761.94
2023-05-01T16:51:08.258Z,100761.09
2023-05-01T16:53:34.697Z,100759.66
2023-05-01T16:56:01.342Z,100756.81
2023-05-01T16:58:28.036Z,100763.34
2023-05-01T17:00:55.686Z,100751.59
2023-05-01T17:03:22.091Z,100755.63
2023-05-01T17:05:48.516Z,100748.44
2023-05-01T17:08:14.951Z,100746.38
2023-05-01T17:10:41.434Z,100749.97
2023-05-01T17:13:08.169Z,100749.16
2023-05-01T17:15:34.528Z,100748.91
2023-05-01T17:18:01.094Z,100745.53
2023-05-01T17:20:28.395Z,100746.59
2023-05-01T17:22:54.801Z,100747.06
2023-05-01T17:25:21.245Z,100741.34
2023-05-01T17:27:47.647Z,100743.44
2023-05-01T17:30:14.046Z,100733.44
2023-05-01T17:32:40.831Z,100728.31
2023-05-01T17:35:07.722Z,100729.94
2023-05-01T17:37:34.151Z,100737.59
2023-05-01T17:40:01.592Z,100735.72
2023-05-01T17:42:28.425Z,100742.78
2023-05-01T17:44:54.852Z,100752.91
2023-05-01T17:47:21.890Z,100751.44
2023-05-01T17:49:51.302Z,100754.88
2023-05-01T17:52:17.970Z,100751.75
2023-05-01T17:54:44.339Z,100735.19
2023-05-01T17:57:10.802Z,100743.03
2023-05-01T17:59:37.231Z,100745.34
2023-05-01T18:02:04.386Z,100752.81
2023-05-01T18:04:30.802Z,100747.75
2023-05-01T18:06:57.936Z,100748.09
2023-05-01T18:09:24.416Z,100759.25
2023-05-01T18:11:50.816Z,100754.88
2023-05-01T18:14:17.264Z,100759.50
2023-05-01T18:16:43.716Z,100767.88
2023-05-01T18:19:10.161Z,100762.44
2023-05-01T18:21:36.552Z,100769.03
2023-05-01T18:24:03.275Z,100780.84
2023-05-01T18:26:30.669Z,100778.50
2023-05-01T18:28:57.060Z,100781.38
2023-05-01T18:31:23.539Z,100775.06
2023-05-01T18:33:50.079Z,100780.84
2023-05-01T18:36:16.482Z,100775.38
2023-05-01T18:38:42.866Z,100779.53
2023-05-01T18:41:09.250Z,100786.00
2023-05-01T18:43:35.990Z,100791.47
2023-05-01T18:46:02.448Z,100786.88
2023-05-01T18:48:28.910Z,100791.63
2023-05-01T18:51:07.664Z,100796.00
2023-05-01T18:53:34.736Z,100798.16
2023-05-01T18:56:01.174Z,100797.28
2023-05-01T18:58:27.573Z,100797.66
2023-05-01T19:00:55.018Z,100801.16
2023-05-01T19:03:21.437Z,100803.91
2023-05-01T19:05:48.116Z,100805.78
2023-05-01T19:08:14.604Z,100812.34
2023-05-01T19:10:42.342Z,100809.75
2023-05-01T19:13:08.720Z,100819.22
2023-05-01T19:15:35.383Z,100817.72
2023-05-01T19:18:02.458Z,100824.03
2023-05-01T19:20:28.933Z,100825.47
2023-05-01T19:22:55.409Z,100834.03
2023-05-01T19:25:21.876Z,100845.13
2023-05-01T19:27:48.940Z,100847.56
2023-05-01T19:30:16.223Z,100849.53
2023-05-01T19:32:42.735Z,100850.44
2023-05-01T19:35:11.525Z,100855.72
2023-05-01T19:37:39.651Z,100854.78
2023-05-01T19:40:06.733Z,100848.34
2023-05-01T19:42:33.240Z,100851.66
2023-05-01T19:44:59.593Z,100850.34
2023-05-01T19:47:26.146Z,100852.75
2023-05-01T19:49:52.563Z,100859.53
2023-05-01T19:52:19.474Z,100865.06
2023-05-01T19:54:45.895Z,100860.75
2023-05-01T19:57:12.864Z,100867.03
2023-05-01T19:59:41.125Z,100860.97
2023-05-01T20:02:07.619Z,100868.66
2023-05-01T20:04:34.335Z,100872.75
2023-05-01T20:07:02.749Z,100873.53
2023-05-01T20:09:29.359Z,100870.78
2023-05-01T20:11:55.762Z,100873.75
2023-05-01T20:14:22.121Z,100865.16
2023-05-01T20:16:50.654Z,100872.97
2023-05-01T20:19:17.740Z,100872.13
2023-05-01T20:21:44.185Z,100876.66
2023-05-01T20:24:11.218Z,100876.84
2023-05-01T20:26:37.590Z,100883.25
2023-05-01T20:29:04.017Z,100877.19
2023-05-01T20:31:30.639Z,100874.75
2023-05-01T20:33:57.077Z,100877.47
2023-05-01T20:36:25.206Z,100884.34
2023-05-01T20:38:53.095Z,100891.75
2023-05-01T20:41:19.568Z,100887.59
2023-05-01T20:43:46.361Z,100889.16
2023-05-01T20:46:12.820Z,100888.75
2023-05-01T20:48:39.223Z,100890.44
2023-05-01T20:51:05.609Z,100892.34
2023-05-01T20:53:32.028Z,100897.16
2023-05-01T20:55:58.414Z,100890.19
2023-05-01T20:58:24.761Z,100894.34
2023-05-01T21:00:53.387Z,100898.19
2023-05-01T21:03:19.824Z,100899.78
2023-05-01T21:05:46.229Z,100905.34
2023-05-01T21:08:12.612Z,100901.94
2023-05-01T21:10:39.513Z,100906.88
2023-05-01T21:13:05.890Z,100907.34
2023-05-01T21:15:33.770Z,100910.66
2023-05-01T21:18:01.314Z,100921.53
2023-05-01T21:20:36.885Z,100923.53
2023-05-01T21:23:04.398Z,100920.81
2023-05-01T21:25:31.978Z,100924.19
2023-05-01T21:28:02.010Z,100930.25
2023-05-01T21:30:31.084Z,100931.47
2023-05-01T21:32:58.224Z,100929.63
2023-05-01T21:35:27.935Z,100939.34
2023-05-01T21:37:54.361Z,100937.22
2023-05-01T21:40:20.802Z,100945.34
2023-05-01T21:42:47.241Z,100953.53
2023-05-01T21:45:18.047Z,100955.75
2023-05-01T21:47:47.260Z,100956.09
2023-05-01T21:50:16.225Z,100961.47
2023-05-01T21:52:43.721Z,100961.59
2023-05-01T21:55:13.175Z,100956.31
2023-05-01T21:57:39.781Z,100963.44
2023-05-01T22:00:09.578Z,100969.88
2023-05-01T22:02:41.736Z,100970.72
2023-05-01T22:05:08.906Z,100969.66
2023-05-01T22:07:40.032Z,100974.75
2023-05-01T22:10:11.446Z,100986.34
2023-05-01T22:12:39.495Z,100977.38
2023-05-01T22:15:10.046Z,100978.72
2023-05-01T22:17:37.066Z,100979.00
2023-05-01T22:20:07.889Z,100983.19
2023-05-01T22:22:35.072Z,100987.72
2023-05-01T22:25:01.832Z,100991.72
2023-05-01T22:27:29.629Z,100991.19
2023-05-01T22:29:55.993Z,100993.66
2023-05-01T22:32:22.461Z,100993.25
2023-05-01T22:34:48.944Z,100995.97
2023-05-01T22:37:15.705Z,100996.53
2023-05-01T22:39:42.492Z,100999.72
2023-05-01T22:42:08.865Z,100999.31
2023-05-01T22:44:35.657Z,100994.91
2023-05-01T22:47:02.026Z,101003.28
2023-05-01T22:49:28.568Z,101009.34
2023-05-01T22:51:55.560Z,101003.75
2023-05-01T22:54:22.080Z,101008.84
2023-05-01T22:56:49.865Z,101014.06
2023-05-01T22:59:16.980Z,101014.25
2023-05-01T23:01:43.677Z,101011.47
2023-05-01T23:04:10.617Z,101023.25
2023-05-01T23:06:37.582Z,101026.81
2023-05-01T23:09:04.043Z,101033.00
2023-05-01T23:11:32.448Z,101026.66
2023-05-01T23:13:59.459Z,101024.84
2023-05-01T23:16:26.087Z,101038.78
2023-05-01T23:18:52.584Z,101033.19
2023-05-01T23:21:19.408Z,101039.97
2023-05-01T23:23:46.424Z,101046.53
2023-05-01T23:26:25.485Z,101042.13
2023-05-01T23:28:52.758Z,101043.09
2023-05-01T23:31:26.203Z,101053.84
2023-05-01T23:33:53.302Z,101046.94
2023-05-01T23:36:20.304Z,101050.44
2023-05-01T23:38:47.161Z,101047.88
2023-05-01T23:41:15.029Z,101048.09
2023-05-01T23:43:41.957Z,101052.41
2023-05-01T23:46:08.371Z,101057.47
2023-05-01T23:48:35.191Z,101055.56
2023-05-01T23:51:01.710Z,101054.78
2023-05-01T23:53:28.117Z,101058.81
2023-05-01T23:55:54.511Z,101058.38
2023-05-01T23:58:21.055Z,101047.41
